Авиационная погода в Елизово

Регион: 
Погода METAR: 
UHPP 221800Z 36002MPS 9999 BKN050 M10/M12 Q1002 R34L/CLRD70 NOSIG RMK QFE748/0998
Время наблюдения
2022-01-22T18:00:00Z
Температура C
-10.0
Точка росы
-12.0
Направление ветра
360
Скорость ветра (узлы)
4
Метео видимость
6.21
Облачность
BKN
Нижняя граница облачности (футы)
5000
Явления погоды
Условия полета
VFR
Аэропорт подробнее: 
BKN – значительная (рассеянная, разорванная) облачность;